sensor_id;sensor_type;location;lat;lon;timestamp;P1;durP1;ratioP1;P2;durP2;ratioP2
54408;SDS011;40315;48.620;9.828;2022-08-23T00:02:11;3.47;;;3.17;;
54408;SDS011;40315;48.620;9.828;2022-08-23T00:04:41;4.57;;;3.58;;
54408;SDS011;40315;48.620;9.828;2022-08-23T00:07:12;6.20;;;3.40;;
54408;SDS011;40315;48.620;9.828;2022-08-23T00:09:41;4.72;;;3.35;;
54408;SDS011;40315;48.620;9.828;2022-08-23T00:12:10;3.42;;;3.10;;
54408;SDS011;40315;48.620;9.828;2022-08-23T00:14:47;3.90;;;3.50;;
54408;SDS011;40315;48.620;9.828;2022-08-23T00:17:16;4.53;;;3.50;;
54408;SDS011;40315;48.620;9.828;2022-08-23T00:19:45;6.20;;;3.20;;
54408;SDS011;40315;48.620;9.828;2022-08-23T00:22:14;3.40;;;3.10;;
54408;SDS011;40315;48.620;9.828;2022-08-23T00:24:56;3.97;;;3.60;;
54408;SDS011;40315;48.620;9.828;2022-08-23T00:27:23;3.80;;;3.38;;
54408;SDS011;40315;48.620;9.828;2022-08-23T00:29:54;3.97;;;3.65;;
54408;SDS011;40315;48.620;9.828;2022-08-23T00:32:26;3.50;;;3.17;;
54408;SDS011;40315;48.620;9.828;2022-08-23T00:34:55;6.45;;;4.03;;
54408;SDS011;40315;48.620;9.828;2022-08-23T00:37:29;4.10;;;3.28;;
54408;SDS011;40315;48.620;9.828;2022-08-23T00:39:59;4.93;;;3.30;;
54408;SDS011;40315;48.620;9.828;2022-08-23T00:42:34;4.07;;;3.40;;
54408;SDS011;40315;48.620;9.828;2022-08-23T00:45:25;6.03;;;3.20;;
54408;SDS011;40315;48.620;9.828;2022-08-23T00:48:18;3.45;;;3.15;;
54408;SDS011;40315;48.620;9.828;2022-08-23T00:50:50;3.83;;;3.50;;
54408;SDS011;40315;48.620;9.828;2022-08-23T00:53:22;4.38;;;3.65;;
54408;SDS011;40315;48.620;9.828;2022-08-23T00:55:53;3.85;;;3.40;;
54408;SDS011;40315;48.620;9.828;2022-08-23T00:58:28;4.38;;;3.75;;
54408;SDS011;40315;48.620;9.828;2022-08-23T01:03:40;8.35;;;3.45;;
54408;SDS011;40315;48.620;9.828;2022-08-23T01:06:09;4.00;;;3.60;;
54408;SDS011;40315;48.620;9.828;2022-08-23T01:08:43;4.05;;;3.28;;
54408;SDS011;40315;48.620;9.828;2022-08-23T01:11:21;4.75;;;3.63;;
54408;SDS011;40315;48.620;9.828;2022-08-23T01:13:53;8.15;;;3.70;;
54408;SDS011;40315;48.620;9.828;2022-08-23T01:16:26;4.45;;;4.10;;
54408;SDS011;40315;48.620;9.828;2022-08-23T01:19:03;4.07;;;3.45;;
54408;SDS011;40315;48.620;9.828;2022-08-23T01:21:44;3.50;;;3.20;;
54408;SDS011;40315;48.620;9.828;2022-08-23T01:24:18;5.78;;;3.30;;
54408;SDS011;40315;48.620;9.828;2022-08-23T01:26:46;3.90;;;3.33;;
54408;SDS011;40315;48.620;9.828;2022-08-23T01:29:13;3.95;;;3.50;;
54408;SDS011;40315;48.620;9.828;2022-08-23T01:31:41;4.20;;;3.80;;
54408;SDS011;40315;48.620;9.828;2022-08-23T01:34:09;4.78;;;3.63;;
54408;SDS011;40315;48.620;9.828;2022-08-23T01:36:40;3.78;;;3.38;;
54408;SDS011;40315;48.620;9.828;2022-08-23T01:39:08;5.47;;;3.90;;
54408;SDS011;40315;48.620;9.828;2022-08-23T01:44:59;4.43;;;3.42;;
54408;SDS011;40315;48.620;9.828;2022-08-23T01:47:30;6.18;;;3.25;;
54408;SDS011;40315;48.620;9.828;2022-08-23T01:49:57;5.90;;;3.70;;
54408;SDS011;40315;48.620;9.828;2022-08-23T01:52:25;5.95;;;4.00;;
54408;SDS011;40315;48.620;9.828;2022-08-23T01:54:54;4.93;;;3.72;;
54408;SDS011;40315;48.620;9.828;2022-08-23T01:57:21;3.97;;;3.58;;
54408;SDS011;40315;48.620;9.828;2022-08-23T01:59:50;3.65;;;3.20;;
54408;SDS011;40315;48.620;9.828;2022-08-23T02:02:19;5.80;;;3.28;;
54408;SDS011;40315;48.620;9.828;2022-08-23T02:04:46;4.07;;;3.65;;
54408;SDS011;40315;48.620;9.828;2022-08-23T02:07:13;4.93;;;3.58;;
54408;SDS011;40315;48.620;9.828;2022-08-23T02:09:42;4.25;;;3.28;;
54408;SDS011;40315;48.620;9.828;2022-08-23T02:12:10;5.43;;;3.35;;
54408;SDS011;40315;48.620;9.828;2022-08-23T02:14:38;3.67;;;3.35;;
54408;SDS011;40315;48.620;9.828;2022-08-23T02:17:13;3.80;;;2.65;;
54408;SDS011;40315;48.620;9.828;2022-08-23T02:19:44;4.22;;;3.40;;
54408;SDS011;40315;48.620;9.828;2022-08-23T02:22:11;5.50;;;3.58;;
54408;SDS011;40315;48.620;9.828;2022-08-23T02:24:39;6.53;;;3.85;;
54408;SDS011;40315;48.620;9.828;2022-08-23T02:27:11;4.65;;;3.63;;
54408;SDS011;40315;48.620;9.828;2022-08-23T02:29:41;4.38;;;3.97;;
54408;SDS011;40315;48.620;9.828;2022-08-23T02:32:10;4.68;;;3.97;;
54408;SDS011;40315;48.620;9.828;2022-08-23T02:34:39;3.95;;;3.55;;
54408;SDS011;40315;48.620;9.828;2022-08-23T02:37:11;3.95;;;3.45;;
54408;SDS011;40315;48.620;9.828;2022-08-23T02:39:39;4.88;;;3.20;;
54408;SDS011;40315;48.620;9.828;2022-08-23T02:42:08;3.90;;;3.50;;
54408;SDS011;40315;48.620;9.828;2022-08-23T02:44:40;4.07;;;3.45;;
54408;SDS011;40315;48.620;9.828;2022-08-23T02:47:07;4.47;;;4.07;;
54408;SDS011;40315;48.620;9.828;2022-08-23T02:49:40;5.40;;;4.38;;
54408;SDS011;40315;48.620;9.828;2022-08-23T02:52:11;4.70;;;4.30;;
54408;SDS011;40315;48.620;9.828;2022-08-23T02:54:38;6.50;;;4.43;;
54408;SDS011;40315;48.620;9.828;2022-08-23T02:57:06;5.70;;;4.28;;
54408;SDS011;40315;48.620;9.828;2022-08-23T02:59:36;4.63;;;3.55;;
54408;SDS011;40315;48.620;9.828;2022-08-23T03:02:05;6.22;;;4.43;;
54408;SDS011;40315;48.620;9.828;2022-08-23T03:04:38;7.22;;;3.72;;
54408;SDS011;40315;48.620;9.828;2022-08-23T03:07:05;6.50;;;3.78;;
54408;SDS011;40315;48.620;9.828;2022-08-23T03:09:36;4.85;;;3.60;;
54408;SDS011;40315;48.620;9.828;2022-08-23T03:12:05;4.57;;;3.40;;
54408;SDS011;40315;48.620;9.828;2022-08-23T03:14:37;7.32;;;3.88;;
54408;SDS011;40315;48.620;9.828;2022-08-23T03:17:05;4.07;;;3.67;;
54408;SDS011;40315;48.620;9.828;2022-08-23T03:19:32;4.72;;;4.00;;
54408;SDS011;40315;48.620;9.828;2022-08-23T03:22:00;4.00;;;3.70;;
54408;SDS011;40315;48.620;9.828;2022-08-23T03:24:27;4.65;;;4.00;;
54408;SDS011;40315;48.620;9.828;2022-08-23T03:26:56;4.72;;;3.92;;
54408;SDS011;40315;48.620;9.828;2022-08-23T03:29:23;5.10;;;3.72;;
54408;SDS011;40315;48.620;9.828;2022-08-23T03:31:59;3.90;;;3.58;;
54408;SDS011;40315;48.620;9.828;2022-08-23T03:34:28;5.30;;;4.00;;
54408;SDS011;40315;48.620;9.828;2022-08-23T03:36:57;4.93;;;4.07;;
54408;SDS011;40315;48.620;9.828;2022-08-23T03:39:24;5.15;;;4.00;;
54408;SDS011;40315;48.620;9.828;2022-08-23T03:41:53;6.20;;;5.00;;
54408;SDS011;40315;48.620;9.828;2022-08-23T03:44:22;4.60;;;4.20;;
54408;SDS011;40315;48.620;9.828;2022-08-23T03:46:49;4.60;;;4.05;;
54408;SDS011;40315;48.620;9.828;2022-08-23T03:49:16;3.97;;;3.58;;
54408;SDS011;40315;48.620;9.828;2022-08-23T03:51:50;3.97;;;3.58;;
54408;SDS011;40315;48.620;9.828;2022-08-23T03:54:18;6.05;;;4.00;;
54408;SDS011;40315;48.620;9.828;2022-08-23T03:56:50;4.18;;;3.80;;
54408;SDS011;40315;48.620;9.828;2022-08-23T03:59:23;5.10;;;3.80;;
54408;SDS011;40315;48.620;9.828;2022-08-23T04:01:51;4.85;;;3.80;;
54408;SDS011;40315;48.620;9.828;2022-08-23T04:04:19;4.38;;;3.97;;
54408;SDS011;40315;48.620;9.828;2022-08-23T04:07:06;4.68;;;4.28;;
54408;SDS011;40315;48.620;9.828;2022-08-23T04:09:35;4.55;;;4.13;;
54408;SDS011;40315;48.620;9.828;2022-08-23T04:12:02;4.38;;;3.92;;
54408;SDS011;40315;48.620;9.828;2022-08-23T04:14:34;4.55;;;4.05;;
54408;SDS011;40315;48.620;9.828;2022-08-23T04:17:04;5.72;;;3.80;;
54408;SDS011;40315;48.620;9.828;2022-08-23T04:19:31;4.82;;;4.00;;
54408;SDS011;40315;48.620;9.828;2022-08-23T04:22:03;4.45;;;4.03;;
54408;SDS011;40315;48.620;9.828;2022-08-23T04:24:37;5.22;;;4.30;;
54408;SDS011;40315;48.620;9.828;2022-08-23T04:27:05;4.57;;;3.80;;
54408;SDS011;40315;48.620;9.828;2022-08-23T04:29:36;4.43;;;4.03;;
54408;SDS011;40315;48.620;9.828;2022-08-23T04:32:04;5.30;;;4.22;;
54408;SDS011;40315;48.620;9.828;2022-08-23T04:34:34;4.32;;;3.92;;
54408;SDS011;40315;48.620;9.828;2022-08-23T04:37:02;6.45;;;4.13;;
54408;SDS011;40315;48.620;9.828;2022-08-23T04:39:29;5.85;;;4.50;;
54408;SDS011;40315;48.620;9.828;2022-08-23T04:42:16;7.93;;;4.38;;
54408;SDS011;40315;48.620;9.828;2022-08-23T04:44:44;5.45;;;4.28;;
54408;SDS011;40315;48.620;9.828;2022-08-23T04:47:12;5.63;;;4.15;;
54408;SDS011;40315;48.620;9.828;2022-08-23T04:49:39;4.68;;;4.20;;
54408;SDS011;40315;48.620;9.828;2022-08-23T04:52:07;5.32;;;4.32;;
54408;SDS011;40315;48.620;9.828;2022-08-23T04:54:34;4.97;;;4.00;;
54408;SDS011;40315;48.620;9.828;2022-08-23T04:57:22;6.00;;;3.92;;
54408;SDS011;40315;48.620;9.828;2022-08-23T04:59:51;5.40;;;3.80;;
54408;SDS011;40315;48.620;9.828;2022-08-23T05:02:19;5.20;;;3.80;;
54408;SDS011;40315;48.620;9.828;2022-08-23T05:04:46;6.38;;;3.90;;
54408;SDS011;40315;48.620;9.828;2022-08-23T05:07:13;6.35;;;4.35;;
54408;SDS011;40315;48.620;9.828;2022-08-23T05:09:41;5.95;;;4.47;;
54408;SDS011;40315;48.620;9.828;2022-08-23T05:12:11;5.55;;;4.50;;
54408;SDS011;40315;48.620;9.828;2022-08-23T05:14:38;8.57;;;5.28;;
54408;SDS011;40315;48.620;9.828;2022-08-23T05:17:07;4.78;;;4.28;;
54408;SDS011;40315;48.620;9.828;2022-08-23T05:19:36;4.40;;;4.00;;
54408;SDS011;40315;48.620;9.828;2022-08-23T05:22:03;5.72;;;4.47;;
54408;SDS011;40315;48.620;9.828;2022-08-23T05:24:53;4.68;;;3.83;;
54408;SDS011;40315;48.620;9.828;2022-08-23T05:27:20;5.18;;;4.30;;
54408;SDS011;40315;48.620;9.828;2022-08-23T05:29:47;6.88;;;4.57;;
54408;SDS011;40315;48.620;9.828;2022-08-23T05:32:19;4.90;;;4.40;;
54408;SDS011;40315;48.620;9.828;2022-08-23T05:34:47;5.15;;;4.60;;
54408;SDS011;40315;48.620;9.828;2022-08-23T05:37:14;5.22;;;4.03;;
54408;SDS011;40315;48.620;9.828;2022-08-23T05:39:41;4.00;;;3.58;;
54408;SDS011;40315;48.620;9.828;2022-08-23T05:42:10;5.80;;;3.70;;
54408;SDS011;40315;48.620;9.828;2022-08-23T05:44:39;4.30;;;3.90;;
54408;SDS011;40315;48.620;9.828;2022-08-23T05:47:09;5.35;;;3.90;;
54408;SDS011;40315;48.620;9.828;2022-08-23T05:49:49;5.38;;;3.60;;
54408;SDS011;40315;48.620;9.828;2022-08-23T05:52:16;4.13;;;3.72;;
54408;SDS011;40315;48.620;9.828;2022-08-23T05:54:44;5.03;;;3.78;;
54408;SDS011;40315;48.620;9.828;2022-08-23T05:57:29;4.32;;;3.88;;
54408;SDS011;40315;48.620;9.828;2022-08-23T05:59:56;4.07;;;3.50;;
54408;SDS011;40315;48.620;9.828;2022-08-23T06:02:24;4.63;;;3.60;;
54408;SDS011;40315;48.620;9.828;2022-08-23T06:04:52;4.03;;;3.30;;
54408;SDS011;40315;48.620;9.828;2022-08-23T06:07:19;3.45;;;3.15;;
54408;SDS011;40315;48.620;9.828;2022-08-23T06:09:49;6.45;;;4.40;;
54408;SDS011;40315;48.620;9.828;2022-08-23T06:12:16;4.28;;;3.88;;
54408;SDS011;40315;48.620;9.828;2022-08-23T06:14:43;5.35;;;4.00;;
54408;SDS011;40315;48.620;9.828;2022-08-23T06:17:11;5.15;;;3.38;;
54408;SDS011;40315;48.620;9.828;2022-08-23T06:19:38;4.43;;;3.60;;
54408;SDS011;40315;48.620;9.828;2022-08-23T06:22:06;5.60;;;3.63;;
54408;SDS011;40315;48.620;9.828;2022-08-23T06:24:38;3.90;;;3.45;;
54408;SDS011;40315;48.620;9.828;2022-08-23T06:27:13;3.85;;;3.55;;
54408;SDS011;40315;48.620;9.828;2022-08-23T06:29:43;4.72;;;3.95;;
54408;SDS011;40315;48.620;9.828;2022-08-23T06:32:29;3.95;;;3.50;;
54408;SDS011;40315;48.620;9.828;2022-08-23T06:35:19;4.07;;;3.60;;
54408;SDS011;40315;48.620;9.828;2022-08-23T06:37:55;4.43;;;3.13;;
54408;SDS011;40315;48.620;9.828;2022-08-23T06:40:40;4.20;;;3.53;;
54408;SDS011;40315;48.620;9.828;2022-08-23T06:43:22;7.03;;;3.45;;
54408;SDS011;40315;48.620;9.828;2022-08-23T06:46:06;6.50;;;3.03;;
54408;SDS011;40315;48.620;9.828;2022-08-23T06:48:34;4.13;;;3.20;;
54408;SDS011;40315;48.620;9.828;2022-08-23T06:51:01;4.60;;;3.30;;
54408;SDS011;40315;48.620;9.828;2022-08-23T06:53:50;4.15;;;3.20;;
54408;SDS011;40315;48.620;9.828;2022-08-23T06:56:45;3.67;;;2.95;;
54408;SDS011;40315;48.620;9.828;2022-08-23T06:59:17;4.65;;;2.70;;
54408;SDS011;40315;48.620;9.828;2022-08-23T07:02:02;5.63;;;3.00;;
54408;SDS011;40315;48.620;9.828;2022-08-23T07:04:48;2.97;;;2.72;;
54408;SDS011;40315;48.620;9.828;2022-08-23T07:07:36;3.13;;;2.80;;
54408;SDS011;40315;48.620;9.828;2022-08-23T07:10:06;5.10;;;2.85;;
54408;SDS011;40315;48.620;9.828;2022-08-23T07:12:36;3.25;;;2.80;;
54408;SDS011;40315;48.620;9.828;2022-08-23T07:15:06;4.22;;;3.17;;
54408;SDS011;40315;48.620;9.828;2022-08-23T07:17:35;3.53;;;2.90;;
54408;SDS011;40315;48.620;9.828;2022-08-23T07:20:03;3.78;;;2.67;;
54408;SDS011;40315;48.620;9.828;2022-08-23T07:22:33;2.78;;;2.55;;
54408;SDS011;40315;48.620;9.828;2022-08-23T07:25:01;3.47;;;2.67;;
54408;SDS011;40315;48.620;9.828;2022-08-23T07:27:33;5.13;;;2.80;;
54408;SDS011;40315;48.620;9.828;2022-08-23T07:30:02;2.83;;;2.58;;
54408;SDS011;40315;48.620;9.828;2022-08-23T07:32:31;3.22;;;2.13;;
54408;SDS011;40315;48.620;9.828;2022-08-23T07:35:09;2.75;;;2.38;;
54408;SDS011;40315;48.620;9.828;2022-08-23T07:37:40;2.60;;;2.20;;
54408;SDS011;40315;48.620;9.828;2022-08-23T07:40:08;2.53;;;2.08;;
54408;SDS011;40315;48.620;9.828;2022-08-23T07:42:37;4.30;;;2.50;;
54408;SDS011;40315;48.620;9.828;2022-08-23T07:45:05;4.75;;;2.10;;
54408;SDS011;40315;48.620;9.828;2022-08-23T07:47:33;3.50;;;2.35;;
54408;SDS011;40315;48.620;9.828;2022-08-23T07:50:01;5.20;;;2.00;;
54408;SDS011;40315;48.620;9.828;2022-08-23T07:52:30;2.97;;;2.20;;
54408;SDS011;40315;48.620;9.828;2022-08-23T07:54:57;4.22;;;2.15;;
54408;SDS011;40315;48.620;9.828;2022-08-23T07:57:46;2.33;;;2.13;;
54408;SDS011;40315;48.620;9.828;2022-08-23T08:00:46;2.13;;;1.55;;
54408;SDS011;40315;48.620;9.828;2022-08-23T08:03:31;2.00;;;1.80;;
54408;SDS011;40315;48.620;9.828;2022-08-23T08:06:25;2.58;;;1.60;;
54408;SDS011;40315;48.620;9.828;2022-08-23T08:08:53;2.47;;;1.33;;
54408;SDS011;40315;48.620;9.828;2022-08-23T08:11:22;1.70;;;1.60;;
54408;SDS011;40315;48.620;9.828;2022-08-23T08:13:53;4.68;;;1.60;;
54408;SDS011;40315;48.620;9.828;2022-08-23T08:16:22;3.92;;;1.30;;
54408;SDS011;40315;48.620;9.828;2022-08-23T08:18:50;2.25;;;1.60;;
54408;SDS011;40315;48.620;9.828;2022-08-23T08:21:37;2.25;;;1.60;;
54408;SDS011;40315;48.620;9.828;2022-08-23T08:24:43;2.28;;;1.63;;
54408;SDS011;40315;48.620;9.828;2022-08-23T08:27:11;2.38;;;1.85;;
54408;SDS011;40315;48.620;9.828;2022-08-23T08:29:40;3.38;;;1.85;;
54408;SDS011;40315;48.620;9.828;2022-08-23T08:32:08;2.63;;;1.50;;
54408;SDS011;40315;48.620;9.828;2022-08-23T08:34:35;2.65;;;1.73;;
54408;SDS011;40315;48.620;9.828;2022-08-23T08:37:05;2.10;;;1.50;;
54408;SDS011;40315;48.620;9.828;2022-08-23T08:39:32;3.03;;;1.90;;
54408;SDS011;40315;48.620;9.828;2022-08-23T08:42:05;3.28;;;1.52;;
54408;SDS011;40315;48.620;9.828;2022-08-23T08:44:48;2.38;;;1.70;;
54408;SDS011;40315;48.620;9.828;2022-08-23T08:47:24;2.05;;;1.60;;
54408;SDS011;40315;48.620;9.828;2022-08-23T08:50:02;2.30;;;1.90;;
54408;SDS011;40315;48.620;9.828;2022-08-23T08:52:37;2.15;;;1.80;;
54408;SDS011;40315;48.620;9.828;2022-08-23T08:55:16;2.72;;;1.65;;
54408;SDS011;40315;48.620;9.828;2022-08-23T08:57:48;2.65;;;1.80;;
54408;SDS011;40315;48.620;9.828;2022-08-23T09:00:19;4.13;;;1.67;;
54408;SDS011;40315;48.620;9.828;2022-08-23T09:02:49;3.75;;;1.75;;
54408;SDS011;40315;48.620;9.828;2022-08-23T09:05:17;2.22;;;1.70;;
54408;SDS011;40315;48.620;9.828;2022-08-23T09:07:50;2.33;;;1.70;;
54408;SDS011;40315;48.620;9.828;2022-08-23T09:13:25;3.53;;;1.75;;
54408;SDS011;40315;48.620;9.828;2022-08-23T09:16:02;3.95;;;1.90;;
54408;SDS011;40315;48.620;9.828;2022-08-23T09:18:39;3.25;;;1.88;;
54408;SDS011;40315;48.620;9.828;2022-08-23T09:21:07;1.63;;;1.52;;
54408;SDS011;40315;48.620;9.828;2022-08-23T09:23:39;2.20;;;1.70;;
54408;SDS011;40315;48.620;9.828;2022-08-23T09:26:16;3.53;;;2.05;;
54408;SDS011;40315;48.620;9.828;2022-08-23T09:28:46;2.88;;;1.80;;
54408;SDS011;40315;48.620;9.828;2022-08-23T09:31:40;3.47;;;1.77;;
54408;SDS011;40315;48.620;9.828;2022-08-23T09:34:14;1.73;;;1.63;;
54408;SDS011;40315;48.620;9.828;2022-08-23T09:37:04;3.10;;;1.80;;
54408;SDS011;40315;48.620;9.828;2022-08-23T09:39:41;3.85;;;2.00;;
54408;SDS011;40315;48.620;9.828;2022-08-23T09:42:27;3.70;;;1.90;;
54408;SDS011;40315;48.620;9.828;2022-08-23T09:45:00;3.75;;;1.98;;
54408;SDS011;40315;48.620;9.828;2022-08-23T09:47:32;2.75;;;1.90;;
54408;SDS011;40315;48.620;9.828;2022-08-23T09:50:08;3.13;;;2.13;;
54408;SDS011;40315;48.620;9.828;2022-08-23T09:52:44;2.33;;;1.73;;
54408;SDS011;40315;48.620;9.828;2022-08-23T09:55:24;3.10;;;1.90;;
54408;SDS011;40315;48.620;9.828;2022-08-23T09:57:54;3.28;;;2.10;;
54408;SDS011;40315;48.620;9.828;2022-08-23T10:00:24;2.20;;;2.00;;
54408;SDS011;40315;48.620;9.828;2022-08-23T10:05:53;2.33;;;1.90;;
54408;SDS011;40315;48.620;9.828;2022-08-23T10:08:24;2.80;;;2.08;;
54408;SDS011;40315;48.620;9.828;2022-08-23T10:10:58;2.42;;;2.22;;
54408;SDS011;40315;48.620;9.828;2022-08-23T10:13:31;2.72;;;2.05;;
54408;SDS011;40315;48.620;9.828;2022-08-23T10:16:04;2.78;;;2.00;;
54408;SDS011;40315;48.620;9.828;2022-08-23T10:18:55;3.92;;;2.08;;
54408;SDS011;40315;48.620;9.828;2022-08-23T10:21:32;2.92;;;2.10;;
54408;SDS011;40315;48.620;9.828;2022-08-23T10:24:13;5.03;;;2.10;;
54408;SDS011;40315;48.620;9.828;2022-08-23T10:26:48;2.60;;;1.98;;
54408;SDS011;40315;48.620;9.828;2022-08-23T10:29:27;2.55;;;1.98;;
54408;SDS011;40315;48.620;9.828;2022-08-23T10:32:11;2.70;;;1.85;;
54408;SDS011;40315;48.620;9.828;2022-08-23T10:34:56;2.13;;;1.92;;
54408;SDS011;40315;48.620;9.828;2022-08-23T10:37:41;2.72;;;1.92;;
54408;SDS011;40315;48.620;9.828;2022-08-23T10:40:22;2.80;;;2.00;;
54408;SDS011;40315;48.620;9.828;2022-08-23T10:42:57;2.75;;;1.98;;
54408;SDS011;40315;48.620;9.828;2022-08-23T10:45:34;3.83;;;2.15;;
54408;SDS011;40315;48.620;9.828;2022-08-23T10:48:19;2.65;;;1.88;;
54408;SDS011;40315;48.620;9.828;2022-08-23T10:50:55;2.33;;;2.00;;
54408;SDS011;40315;48.620;9.828;2022-08-23T10:53:31;3.95;;;2.20;;
54408;SDS011;40315;48.620;9.828;2022-08-23T10:56:04;1.80;;;1.70;;
54408;SDS011;40315;48.620;9.828;2022-08-23T10:58:49;3.17;;;1.90;;
54408;SDS011;40315;48.620;9.828;2022-08-23T11:01:20;2.65;;;1.90;;
54408;SDS011;40315;48.620;9.828;2022-08-23T11:03:59;3.67;;;2.03;;
54408;SDS011;40315;48.620;9.828;2022-08-23T11:06:43;3.78;;;1.95;;
54408;SDS011;40315;48.620;9.828;2022-08-23T11:12:20;2.70;;;1.88;;
54408;SDS011;40315;48.620;9.828;2022-08-23T11:15:09;4.90;;;2.20;;
54408;SDS011;40315;48.620;9.828;2022-08-23T11:17:58;4.22;;;2.08;;
54408;SDS011;40315;48.620;9.828;2022-08-23T11:23:48;2.10;;;1.83;;
54408;SDS011;40315;48.620;9.828;2022-08-23T11:29:28;2.30;;;2.00;;
54408;SDS011;40315;48.620;9.828;2022-08-23T11:32:21;2.53;;;2.10;;
54408;SDS011;40315;48.620;9.828;2022-08-23T11:34:56;3.80;;;1.80;;
54408;SDS011;40315;48.620;9.828;2022-08-23T11:40:54;2.70;;;2.00;;
54408;SDS011;40315;48.620;9.828;2022-08-23T11:43:31;2.88;;;2.08;;
54408;SDS011;40315;48.620;9.828;2022-08-23T11:46:12;2.45;;;2.08;;
54408;SDS011;40315;48.620;9.828;2022-08-23T11:51:55;2.63;;;1.98;;
54408;SDS011;40315;48.620;9.828;2022-08-23T11:54:38;2.65;;;1.80;;
54408;SDS011;40315;48.620;9.828;2022-08-23T11:57:22;3.72;;;1.98;;
54408;SDS011;40315;48.620;9.828;2022-08-23T12:00:04;2.85;;;1.63;;
54408;SDS011;40315;48.620;9.828;2022-08-23T12:02:50;2.58;;;1.95;;
54408;SDS011;40315;48.620;9.828;2022-08-23T12:05:41;2.53;;;1.80;;
54408;SDS011;40315;48.620;9.828;2022-08-23T12:11:20;3.95;;;1.90;;
54408;SDS011;40315;48.620;9.828;2022-08-23T12:16:47;3.45;;;1.92;;
54408;SDS011;40315;48.620;9.828;2022-08-23T12:19:17;2.53;;;1.90;;
54408;SDS011;40315;48.620;9.828;2022-08-23T12:21:54;2.65;;;1.65;;
54408;SDS011;40315;48.620;9.828;2022-08-23T12:24:24;2.72;;;1.88;;
54408;SDS011;40315;48.620;9.828;2022-08-23T12:26:59;5.35;;;1.55;;
54408;SDS011;40315;48.620;9.828;2022-08-23T12:29:35;2.38;;;1.92;;
54408;SDS011;40315;48.620;9.828;2022-08-23T12:32:15;1.95;;;1.75;;
54408;SDS011;40315;48.620;9.828;2022-08-23T12:34:49;2.72;;;1.90;;
54408;SDS011;40315;48.620;9.828;2022-08-23T12:37:30;3.80;;;1.80;;
54408;SDS011;40315;48.620;9.828;2022-08-23T12:40:05;1.70;;;1.60;;
54408;SDS011;40315;48.620;9.828;2022-08-23T12:42:36;2.95;;;2.00;;
54408;SDS011;40315;48.620;9.828;2022-08-23T12:45:06;3.42;;;1.80;;
54408;SDS011;40315;48.620;9.828;2022-08-23T12:47:44;2.67;;;1.85;;
54408;SDS011;40315;48.620;9.828;2022-08-23T12:50:24;2.78;;;1.90;;
54408;SDS011;40315;48.620;9.828;2022-08-23T12:52:54;3.03;;;1.90;;
54408;SDS011;40315;48.620;9.828;2022-08-23T12:55:27;5.50;;;1.88;;
54408;SDS011;40315;48.620;9.828;2022-08-23T12:57:56;2.13;;;1.80;;
54408;SDS011;40315;48.620;9.828;2022-08-23T13:00:25;3.70;;;1.98;;
54408;SDS011;40315;48.620;9.828;2022-08-23T13:02:57;3.50;;;1.90;;
54408;SDS011;40315;48.620;9.828;2022-08-23T13:05:33;2.65;;;1.67;;
54408;SDS011;40315;48.620;9.828;2022-08-23T13:08:07;3.00;;;1.77;;
54408;SDS011;40315;48.620;9.828;2022-08-23T13:10:37;2.95;;;1.70;;
54408;SDS011;40315;48.620;9.828;2022-08-23T13:13:07;2.15;;;1.75;;
54408;SDS011;40315;48.620;9.828;2022-08-23T13:15:48;2.95;;;1.70;;
54408;SDS011;40315;48.620;9.828;2022-08-23T13:18:26;1.95;;;1.67;;
54408;SDS011;40315;48.620;9.828;2022-08-23T13:23:49;4.70;;;2.30;;
54408;SDS011;40315;48.620;9.828;2022-08-23T13:26:25;2.95;;;2.00;;
54408;SDS011;40315;48.620;9.828;2022-08-23T13:29:07;2.75;;;1.85;;
54408;SDS011;40315;48.620;9.828;2022-08-23T13:34:36;2.85;;;1.90;;
54408;SDS011;40315;48.620;9.828;2022-08-23T13:37:14;4.82;;;2.05;;
54408;SDS011;40315;48.620;9.828;2022-08-23T13:39:49;1.98;;;1.50;;
54408;SDS011;40315;48.620;9.828;2022-08-23T13:42:25;3.85;;;1.88;;
54408;SDS011;40315;48.620;9.828;2022-08-23T13:45:04;1.80;;;1.58;;
54408;SDS011;40315;48.620;9.828;2022-08-23T13:47:33;3.20;;;1.92;;
54408;SDS011;40315;48.620;9.828;2022-08-23T13:50:05;2.08;;;1.70;;
54408;SDS011;40315;48.620;9.828;2022-08-23T13:52:41;2.30;;;1.92;;
54408;SDS011;40315;48.620;9.828;2022-08-23T13:55:08;2.72;;;1.80;;
54408;SDS011;40315;48.620;9.828;2022-08-23T13:57:39;2.33;;;1.80;;
54408;SDS011;40315;48.620;9.828;2022-08-23T14:00:08;2.03;;;1.80;;
54408;SDS011;40315;48.620;9.828;2022-08-23T14:02:36;2.25;;;1.73;;
54408;SDS011;40315;48.620;9.828;2022-08-23T14:05:05;3.08;;;1.70;;
54408;SDS011;40315;48.620;9.828;2022-08-23T14:07:36;1.67;;;1.58;;
54408;SDS011;40315;48.620;9.828;2022-08-23T14:10:03;3.80;;;2.10;;
54408;SDS011;40315;48.620;9.828;2022-08-23T14:12:33;2.80;;;2.05;;
54408;SDS011;40315;48.620;9.828;2022-08-23T14:15:01;1.90;;;1.70;;
54408;SDS011;40315;48.620;9.828;2022-08-23T14:17:30;2.17;;;1.90;;
54408;SDS011;40315;48.620;9.828;2022-08-23T14:20:00;3.33;;;2.28;;
54408;SDS011;40315;48.620;9.828;2022-08-23T14:22:30;2.13;;;1.90;;
54408;SDS011;40315;48.620;9.828;2022-08-23T14:24:57;2.67;;;1.92;;
54408;SDS011;40315;48.620;9.828;2022-08-23T14:27:24;5.30;;;1.83;;
54408;SDS011;40315;48.620;9.828;2022-08-23T14:29:51;3.42;;;2.03;;
54408;SDS011;40315;48.620;9.828;2022-08-23T14:32:21;3.13;;;1.77;;
54408;SDS011;40315;48.620;9.828;2022-08-23T14:34:51;2.30;;;1.90;;
54408;SDS011;40315;48.620;9.828;2022-08-23T14:37:20;2.88;;;2.10;;
54408;SDS011;40315;48.620;9.828;2022-08-23T14:39:48;4.45;;;2.08;;
54408;SDS011;40315;48.620;9.828;2022-08-23T14:42:16;3.03;;;2.00;;
54408;SDS011;40315;48.620;9.828;2022-08-23T14:44:48;2.20;;;1.98;;
54408;SDS011;40315;48.620;9.828;2022-08-23T14:47:15;3.60;;;2.35;;
54408;SDS011;40315;48.620;9.828;2022-08-23T14:49:45;2.90;;;1.95;;
54408;SDS011;40315;48.620;9.828;2022-08-23T14:52:14;3.70;;;1.80;;
54408;SDS011;40315;48.620;9.828;2022-08-23T14:54:41;2.80;;;1.88;;
54408;SDS011;40315;48.620;9.828;2022-08-23T14:57:09;3.08;;;1.83;;
54408;SDS011;40315;48.620;9.828;2022-08-23T14:59:36;2.47;;;1.98;;
54408;SDS011;40315;48.620;9.828;2022-08-23T15:02:04;3.45;;;1.70;;
54408;SDS011;40315;48.620;9.828;2022-08-23T15:04:32;2.75;;;2.25;;
54408;SDS011;40315;48.620;9.828;2022-08-23T15:06:59;3.17;;;2.03;;
54408;SDS011;40315;48.620;9.828;2022-08-23T15:09:28;4.00;;;2.10;;
54408;SDS011;40315;48.620;9.828;2022-08-23T15:11:57;2.00;;;1.83;;
54408;SDS011;40315;48.620;9.828;2022-08-23T15:14:28;2.58;;;2.00;;
54408;SDS011;40315;48.620;9.828;2022-08-23T15:16:55;2.40;;;1.95;;
54408;SDS011;40315;48.620;9.828;2022-08-23T15:19:22;2.00;;;1.83;;
54408;SDS011;40315;48.620;9.828;2022-08-23T15:21:49;2.53;;;1.95;;
54408;SDS011;40315;48.620;9.828;2022-08-23T15:24:18;5.53;;;2.13;;
54408;SDS011;40315;48.620;9.828;2022-08-23T15:26:45;3.58;;;1.88;;
54408;SDS011;40315;48.620;9.828;2022-08-23T15:29:15;4.55;;;2.20;;
54408;SDS011;40315;48.620;9.828;2022-08-23T15:31:43;2.15;;;1.60;;
54408;SDS011;40315;48.620;9.828;2022-08-23T15:34:11;3.22;;;1.92;;
54408;SDS011;40315;48.620;9.828;2022-08-23T15:36:41;2.63;;;1.73;;
54408;SDS011;40315;48.620;9.828;2022-08-23T15:39:11;2.13;;;1.88;;
54408;SDS011;40315;48.620;9.828;2022-08-23T15:41:38;3.45;;;2.00;;
54408;SDS011;40315;48.620;9.828;2022-08-23T15:44:05;2.45;;;1.88;;
54408;SDS011;40315;48.620;9.828;2022-08-23T15:46:32;3.42;;;1.83;;
54408;SDS011;40315;48.620;9.828;2022-08-23T15:49:02;3.80;;;2.08;;
54408;SDS011;40315;48.620;9.828;2022-08-23T15:51:35;2.67;;;2.03;;
54408;SDS011;40315;48.620;9.828;2022-08-23T15:54:04;4.22;;;2.08;;
54408;SDS011;40315;48.620;9.828;2022-08-23T15:56:33;3.72;;;2.10;;
54408;SDS011;40315;48.620;9.828;2022-08-23T15:59:02;2.75;;;1.75;;
54408;SDS011;40315;48.620;9.828;2022-08-23T16:01:29;2.25;;;2.05;;